sensor_id;sensor_type;location;lat;lon;timestamp;pressure;altitude;pressure_sealevel;temperature;humidity
41945;BME280;63122;52.424;13.458;2024-02-28T01:09:06;101208.28;;;4.62;100.00
41945;BME280;63122;52.424;13.458;2024-02-28T01:11:02;101220.13;;;4.68;100.00
41945;BME280;63122;52.424;13.458;2024-02-28T01:12:59;101219.41;;;4.66;100.00
41945;BME280;63122;52.424;13.458;2024-02-28T01:14:54;101209.97;;;4.63;100.00
41945;BME280;63122;52.424;13.458;2024-02-28T01:16:49;101206.13;;;4.69;100.00
41945;BME280;63122;52.424;13.458;2024-02-28T01:18:42;101200.56;;;4.73;100.00
41945;BME280;63122;52.424;13.458;2024-02-28T01:20:40;101200.78;;;4.70;100.00
41945;BME280;63122;52.424;13.458;2024-02-28T01:22:36;101205.19;;;4.70;100.00
41945;BME280;63122;52.424;13.458;2024-02-28T01:24:34;101203.31;;;4.72;100.00
41945;BME280;63122;52.424;13.458;2024-02-28T01:26:29;101210.94;;;4.75;100.00
41945;BME280;63122;52.424;13.458;2024-02-28T01:28:24;101209.59;;;4.82;100.00
41945;BME280;63122;52.424;13.458;2024-02-28T01:30:18;101211.47;;;4.80;100.00
41945;BME280;63122;52.424;13.458;2024-02-28T01:32:16;101212.41;;;4.79;100.00
41945;BME280;63122;52.424;13.458;2024-02-28T01:34:11;101211.59;;;4.79;100.00
41945;BME280;63122;52.424;13.458;2024-02-28T01:36:07;101217.56;;;4.81;100.00
41945;BME280;63122;52.424;13.458;2024-02-28T01:37:59;101219.22;;;4.82;100.00
41945;BME280;63122;52.424;13.458;2024-02-28T01:39:57;101214.22;;;4.79;100.00
41945;BME280;63122;52.424;13.458;2024-02-28T01:41:53;101209.59;;;4.82;100.00
41945;BME280;63122;52.424;13.458;2024-02-28T01:43:49;101208.03;;;4.80;100.00
41945;BME280;63122;52.424;13.458;2024-02-28T01:45:46;101206.16;;;4.82;100.00
41945;BME280;63122;52.424;13.458;2024-02-28T01:47:40;101205.22;;;4.83;100.00
41945;BME280;63122;52.424;13.458;2024-02-28T01:49:36;101210.25;;;4.86;100.00
41945;BME280;63122;52.424;13.458;2024-02-28T01:51:32;101212.75;;;4.87;100.00
41945;BME280;63122;52.424;13.458;2024-02-28T01:53:28;101210.13;;;4.87;100.00
41945;BME280;63122;52.424;13.458;2024-02-28T01:55:26;101207.34;;;4.90;100.00
41945;BME280;63122;52.424;13.458;2024-02-28T01:57:22;101205.34;;;4.94;100.00
41945;BME280;63122;52.424;13.458;2024-02-28T01:59:18;101202.00;;;4.92;100.00
41945;BME280;63122;52.424;13.458;2024-02-28T02:01:14;101205.13;;;4.97;100.00
41945;BME280;63122;52.424;13.458;2024-02-28T02:03:10;101205.25;;;4.96;100.00
41945;BME280;63122;52.424;13.458;2024-02-28T02:05:04;101206.00;;;4.98;100.00
41945;BME280;63122;52.424;13.458;2024-02-28T02:07:00;101201.50;;;5.00;100.00
41945;BME280;63122;52.424;13.458;2024-02-28T02:08:53;101200.22;;;4.93;100.00
41945;BME280;63122;52.424;13.458;2024-02-28T02:10:51;101194.69;;;4.97;100.00
41945;BME280;63122;52.424;13.458;2024-02-28T02:12:44;101205.88;;;4.99;100.00
41945;BME280;63122;52.424;13.458;2024-02-28T02:14:39;101197.63;;;4.93;100.00
41945;BME280;63122;52.424;13.458;2024-02-28T02:16:35;101195.22;;;4.89;100.00
41945;BME280;63122;52.424;13.458;2024-02-28T02:18:28;101195.09;;;4.91;100.00
41945;BME280;63122;52.424;13.458;2024-02-28T02:20:25;101195.28;;;4.88;100.00
41945;BME280;63122;52.424;13.458;2024-02-28T02:22:23;101191.81;;;4.87;100.00
41945;BME280;63122;52.424;13.458;2024-02-28T02:24:24;101192.59;;;4.89;100.00
41945;BME280;63122;52.424;13.458;2024-02-28T02:26:20;101200.44;;;4.89;100.00
41945;BME280;63122;52.424;13.458;2024-02-28T02:28:13;101204.53;;;4.94;100.00
41945;BME280;63122;52.424;13.458;2024-02-28T02:30:09;101197.69;;;4.91;100.00
41945;BME280;63122;52.424;13.458;2024-02-28T02:32:03;101201.06;;;4.93;100.00
41945;BME280;63122;52.424;13.458;2024-02-28T02:33:58;101207.22;;;4.92;100.00
41945;BME280;63122;52.424;13.458;2024-02-28T02:35:54;101209.75;;;4.94;100.00
41945;BME280;63122;52.424;13.458;2024-02-28T02:37:49;101207.13;;;4.94;100.00
41945;BME280;63122;52.424;13.458;2024-02-28T02:39:45;101208.81;;;4.95;100.00
41945;BME280;63122;52.424;13.458;2024-02-28T02:41:40;101208.81;;;4.95;100.00
41945;BME280;63122;52.424;13.458;2024-02-28T02:43:35;101222.09;;;4.92;100.00
41945;BME280;63122;52.424;13.458;2024-02-28T02:45:28;101219.84;;;4.85;100.00
41945;BME280;63122;52.424;13.458;2024-02-28T02:47:27;101221.31;;;4.77;100.00
41945;BME280;63122;52.424;13.458;2024-02-28T02:49:23;101233.28;;;4.66;100.00
41945;BME280;63122;52.424;13.458;2024-02-28T02:51:18;101232.28;;;4.54;100.00
41945;BME280;63122;52.424;13.458;2024-02-28T02:53:14;101229.25;;;4.47;100.00
41945;BME280;63122;52.424;13.458;2024-02-28T02:55:09;101242.50;;;4.44;100.00
41945;BME280;63122;52.424;13.458;2024-02-28T02:57:05;101240.72;;;4.45;100.00
41945;BME280;63122;52.424;13.458;2024-02-28T02:58:57;101243.75;;;4.39;100.00
41945;BME280;63122;52.424;13.458;2024-02-28T04:06:34;101254.66;;;4.31;100.00
41945;BME280;63122;52.424;13.458;2024-02-28T04:08:30;101256.00;;;4.24;100.00
41945;BME280;63122;52.424;13.458;2024-02-28T04:10:23;101258.03;;;4.18;100.00
41945;BME280;63122;52.424;13.458;2024-02-28T04:12:19;101261.69;;;4.16;100.00
41945;BME280;63122;52.424;13.458;2024-02-28T04:14:14;101258.97;;;4.17;100.00
41945;BME280;63122;52.424;13.458;2024-02-28T04:16:10;101262.44;;;4.18;100.00
41945;BME280;63122;52.424;13.458;2024-02-28T04:18:05;101260.75;;;4.17;100.00
41945;BME280;63122;52.424;13.458;2024-02-28T04:19:58;101264.31;;;4.16;100.00
41945;BME280;63122;52.424;13.458;2024-02-28T04:21:59;101268.97;;;4.11;100.00
41945;BME280;63122;52.424;13.458;2024-02-28T04:23:54;101277.94;;;4.07;100.00
41945;BME280;63122;52.424;13.458;2024-02-28T04:25:49;101275.22;;;4.08;100.00
41945;BME280;63122;52.424;13.458;2024-02-28T04:27:45;101271.38;;;4.14;100.00
41945;BME280;63122;52.424;13.458;2024-02-28T04:29:41;101272.41;;;4.11;100.00
41945;BME280;63122;52.424;13.458;2024-02-28T04:31:33;101265.44;;;4.12;100.00
41945;BME280;63122;52.424;13.458;2024-02-28T04:33:29;101272.22;;;4.14;100.00
41945;BME280;63122;52.424;13.458;2024-02-28T04:35:23;101266.16;;;4.14;100.00
41945;BME280;63122;52.424;13.458;2024-02-28T04:40:14;101268.59;;;4.17;100.00
41945;BME280;63122;52.424;13.458;2024-02-28T04:42:12;101275.75;;;4.13;100.00
41945;BME280;63122;52.424;13.458;2024-02-28T04:47:17;101278.69;;;4.09;100.00
41945;BME280;63122;52.424;13.458;2024-02-28T04:49:24;101285.56;;;4.10;100.00
41945;BME280;63122;52.424;13.458;2024-02-28T04:51:20;101285.38;;;3.98;100.00
41945;BME280;63122;52.424;13.458;2024-02-28T04:53:16;101298.25;;;4.01;100.00
41945;BME280;63122;52.424;13.458;2024-02-28T04:55:09;101292.19;;;4.01;100.00
41945;BME280;63122;52.424;13.458;2024-02-28T04:57:05;101302.53;;;4.02;100.00
41945;BME280;63122;52.424;13.458;2024-02-28T04:59:00;101303.13;;;4.08;100.00
41945;BME280;63122;52.424;13.458;2024-02-28T05:00:59;101302.91;;;4.11;100.00
41945;BME280;63122;52.424;13.458;2024-02-28T05:02:55;101304.03;;;4.07;100.00
41945;BME280;63122;52.424;13.458;2024-02-28T05:04:51;101308.03;;;4.12;100.00
41945;BME280;63122;52.424;13.458;2024-02-28T05:06:46;101307.09;;;4.13;100.00
41945;BME280;63122;52.424;13.458;2024-02-28T05:08:42;101307.22;;;4.12;100.00
41945;BME280;63122;52.424;13.458;2024-02-28T05:10:37;101304.88;;;4.07;100.00
41945;BME280;63122;52.424;13.458;2024-02-28T05:12:34;101310.34;;;4.02;100.00
41945;BME280;63122;52.424;13.458;2024-02-28T05:14:27;101315.69;;;4.01;100.00
41945;BME280;63122;52.424;13.458;2024-02-28T05:16:22;101316.44;;;4.03;100.00
41945;BME280;63122;52.424;13.458;2024-02-28T05:18:18;101317.91;;;4.07;100.00
41945;BME280;63122;52.424;13.458;2024-02-28T05:20:17;101326.03;;;4.02;100.00
41945;BME280;63122;52.424;13.458;2024-02-28T05:22:12;101332.28;;;4.00;100.00
41945;BME280;63122;52.424;13.458;2024-02-28T05:24:08;101330.50;;;4.00;100.00
41945;BME280;63122;52.424;13.458;2024-02-28T05:26:01;101333.22;;;3.99;100.00
41945;BME280;63122;52.424;13.458;2024-02-28T05:27:59;101333.75;;;3.89;100.00
41945;BME280;63122;52.424;13.458;2024-02-28T05:29:54;101326.03;;;3.88;100.00
41945;BME280;63122;52.424;13.458;2024-02-28T05:31:47;101331.31;;;3.86;100.00
41945;BME280;63122;52.424;13.458;2024-02-28T05:33:45;101327.16;;;3.84;100.00
41945;BME280;63122;52.424;13.458;2024-02-28T05:35:38;101327.91;;;3.86;100.00
41945;BME280;63122;52.424;13.458;2024-02-28T05:37:33;101332.06;;;3.88;100.00
41945;BME280;63122;52.424;13.458;2024-02-28T05:39:27;101330.22;;;3.91;100.00
41945;BME280;63122;52.424;13.458;2024-02-28T05:41:23;101331.44;;;3.85;100.00
41945;BME280;63122;52.424;13.458;2024-02-28T05:43:17;101332.25;;;3.85;100.00
41945;BME280;63122;52.424;13.458;2024-02-28T05:45:12;101338.53;;;3.83;100.00
41945;BME280;63122;52.424;13.458;2024-02-28T05:47:09;101337.59;;;3.84;100.00
41945;BME280;63122;52.424;13.458;2024-02-28T05:49:04;101345.00;;;3.75;100.00
41945;BME280;63122;52.424;13.458;2024-02-28T05:51:01;101349.97;;;3.80;100.00
41945;BME280;63122;52.424;13.458;2024-02-28T05:52:56;101357.44;;;3.86;100.00
41945;BME280;63122;52.424;13.458;2024-02-28T05:54:52;101348.59;;;3.89;100.00
41945;BME280;63122;52.424;13.458;2024-02-28T05:56:47;101351.03;;;3.92;100.00
41945;BME280;63122;52.424;13.458;2024-02-28T05:58:44;101348.16;;;3.97;100.00
41945;BME280;63122;52.424;13.458;2024-02-28T06:00:40;101355.22;;;3.95;100.00
41945;BME280;63122;52.424;13.458;2024-02-28T06:02:33;101361.72;;;3.87;100.00
41945;BME280;63122;52.424;13.458;2024-02-28T06:04:31;101356.16;;;3.94;100.00
41945;BME280;63122;52.424;13.458;2024-02-28T06:06:27;101357.09;;;3.93;100.00
41945;BME280;63122;52.424;13.458;2024-02-28T06:08:20;101368.53;;;3.90;100.00
41945;BME280;63122;52.424;13.458;2024-02-28T06:10:16;101361.66;;;3.89;100.00
41945;BME280;63122;52.424;13.458;2024-02-28T06:12:13;101361.53;;;3.91;100.00
41945;BME280;63122;52.424;13.458;2024-02-28T06:14:10;101375.25;;;3.80;100.00
41945;BME280;63122;52.424;13.458;2024-02-28T06:16:04;101383.34;;;3.75;100.00
41945;BME280;63122;52.424;13.458;2024-02-28T06:18:00;101377.94;;;3.78;100.00
41945;BME280;63122;52.424;13.458;2024-02-28T06:19:58;101387.56;;;3.78;100.00
41945;BME280;63122;52.424;13.458;2024-02-28T06:21:54;101393.84;;;3.73;100.00
41945;BME280;63122;52.424;13.458;2024-02-28T06:23:47;101402.72;;;3.71;100.00
41945;BME280;63122;52.424;13.458;2024-02-28T06:25:43;101404.84;;;3.64;100.00
41945;BME280;63122;52.424;13.458;2024-02-28T06:27:37;101403.16;;;3.63;100.00
41945;BME280;63122;52.424;13.458;2024-02-28T06:29:35;101402.66;;;3.56;100.00
41945;BME280;63122;52.424;13.458;2024-02-28T06:31:28;101405.00;;;3.61;100.00
41945;BME280;63122;52.424;13.458;2024-02-28T06:33:25;101406.88;;;3.59;100.00
41945;BME280;63122;52.424;13.458;2024-02-28T06:35:22;101409.31;;;3.62;100.00
41945;BME280;63122;52.424;13.458;2024-02-28T06:37:16;101416.28;;;3.62;100.00
41945;BME280;63122;52.424;13.458;2024-02-28T06:39:11;101419.75;;;3.62;100.00
41945;BME280;63122;52.424;13.458;2024-02-28T06:41:04;101421.28;;;3.50;100.00
41945;BME280;63122;52.424;13.458;2024-02-28T06:43:00;101415.22;;;3.50;100.00
41945;BME280;63122;52.424;13.458;2024-02-28T06:44:55;101416.91;;;3.51;100.00
41945;BME280;63122;52.424;13.458;2024-02-28T06:46:51;101423.81;;;3.52;100.00
41945;BME280;63122;52.424;13.458;2024-02-28T06:48:50;101417.91;;;3.48;100.00
41945;BME280;63122;52.424;13.458;2024-02-28T06:50:48;101422.56;;;3.43;100.00
41945;BME280;63122;52.424;13.458;2024-02-28T06:52:43;101426.66;;;3.47;100.00
41945;BME280;63122;52.424;13.458;2024-02-28T06:54:38;101426.84;;;3.44;100.00
41945;BME280;63122;52.424;13.458;2024-02-28T06:56:34;101430.28;;;3.44;100.00
41945;BME280;63122;52.424;13.458;2024-02-28T06:58:29;101425.16;;;3.43;100.00
41945;BME280;63122;52.424;13.458;2024-02-28T07:00:25;101440.88;;;3.41;100.00
41945;BME280;63122;52.424;13.458;2024-02-28T07:02:22;101438.22;;;3.43;100.00
41945;BME280;63122;52.424;13.458;2024-02-28T07:04:18;101442.09;;;3.36;100.00
41945;BME280;63122;52.424;13.458;2024-02-28T07:06:16;101443.16;;;3.31;100.00
41945;BME280;63122;52.424;13.458;2024-02-28T07:08:14;101442.22;;;3.33;100.00
41945;BME280;63122;52.424;13.458;2024-02-28T07:10:10;101446.88;;;3.27;100.00
41945;BME280;63122;52.424;13.458;2024-02-28T07:12:04;101446.81;;;3.29;100.00
41945;BME280;63122;52.424;13.458;2024-02-28T07:14:00;101441.75;;;3.26;100.00
41945;BME280;63122;52.424;13.458;2024-02-28T07:15:57;101446.53;;;3.34;100.00
41945;BME280;63122;52.424;13.458;2024-02-28T07:17:52;101445.78;;;3.31;100.00
41945;BME280;63122;52.424;13.458;2024-02-28T07:19:48;101443.78;;;3.37;100.00
41945;BME280;63122;52.424;13.458;2024-02-28T07:21:43;101446.03;;;3.43;100.00
41945;BME280;63122;52.424;13.458;2024-02-28T07:23:39;101442.38;;;3.45;100.00
41945;BME280;63122;52.424;13.458;2024-02-28T07:25:32;101440.72;;;3.44;100.00
41945;BME280;63122;52.424;13.458;2024-02-28T07:27:29;101440.72;;;3.44;100.00
41945;BME280;63122;52.424;13.458;2024-02-28T07:29:21;101447.72;;;3.44;100.00
41945;BME280;63122;52.424;13.458;2024-02-28T07:31:17;101441.81;;;3.40;100.00
41945;BME280;63122;52.424;13.458;2024-02-28T07:33:13;101438.97;;;3.45;100.00
41945;BME280;63122;52.424;13.458;2024-02-28T07:35:09;101440.63;;;3.46;100.00
41945;BME280;63122;52.424;13.458;2024-02-28T07:37:07;101434.25;;;3.52;100.00
41945;BME280;63122;52.424;13.458;2024-02-28T07:39:00;101432.38;;;3.54;100.00
41945;BME280;63122;52.424;13.458;2024-02-28T07:40:55;101439.94;;;3.58;100.00
41945;BME280;63122;52.424;13.458;2024-02-28T07:42:48;101440.28;;;3.52;100.00
41945;BME280;63122;52.424;13.458;2024-02-28T07:44:43;101446.59;;;3.48;100.00
41945;BME280;63122;52.424;13.458;2024-02-28T07:46:40;101445.84;;;3.46;100.00
41945;BME280;63122;52.424;13.458;2024-02-28T07:48:36;101445.09;;;3.44;100.00
41945;BME280;63122;52.424;13.458;2024-02-28T07:50:29;101446.97;;;3.26;100.00
41945;BME280;63122;52.424;13.458;2024-02-28T07:52:27;101446.22;;;3.24;100.00
41945;BME280;63122;52.424;13.458;2024-02-28T07:54:22;101453.28;;;3.22;100.00
41945;BME280;63122;52.424;13.458;2024-02-28T07:56:19;101459.66;;;3.16;100.00
41945;BME280;63122;52.424;13.458;2024-02-28T07:58:12;101463.19;;;3.15;100.00
41945;BME280;63122;52.424;13.458;2024-02-28T08:00:12;101460.19;;;3.23;100.00
41945;BME280;63122;52.424;13.458;2024-02-28T08:02:10;101458.97;;;3.28;100.00
41945;BME280;63122;52.424;13.458;2024-02-28T08:04:07;101465.56;;;3.36;100.00
41945;BME280;63122;52.424;13.458;2024-02-28T08:06:04;101465.47;;;3.37;100.00
41945;BME280;63122;52.424;13.458;2024-02-28T08:08:00;101467.84;;;3.42;100.00
41945;BME280;63122;52.424;13.458;2024-02-28T08:09:56;101471.44;;;3.39;100.00
41945;BME280;63122;52.424;13.458;2024-02-28T08:11:51;101468.94;;;3.38;100.00
41945;BME280;63122;52.424;13.458;2024-02-28T08:13:47;101471.53;;;3.38;100.00
41945;BME280;63122;52.424;13.458;2024-02-28T08:15:42;101477.81;;;3.34;100.00
41945;BME280;63122;52.424;13.458;2024-02-28T08:17:38;101486.50;;;3.34;100.00
41945;BME280;63122;52.424;13.458;2024-02-28T08:19:33;101483.47;;;3.26;100.00
41945;BME280;63122;52.424;13.458;2024-02-28T08:21:27;101488.88;;;3.23;100.00
41945;BME280;63122;52.424;13.458;2024-02-28T08:23:25;101488.09;;;3.21;100.00
41945;BME280;63122;52.424;13.458;2024-02-28T08:25:19;101487.19;;;3.22;100.00
41945;BME280;63122;52.424;13.458;2024-02-28T08:27:15;101491.88;;;3.15;100.00
41945;BME280;63122;52.424;13.458;2024-02-28T08:29:11;101487.66;;;3.12;100.00
41945;BME280;63122;52.424;13.458;2024-02-28T08:31:04;101494.03;;;3.07;100.00
41945;BME280;63122;52.424;13.458;2024-02-28T08:32:59;101495.75;;;3.08;100.00
41945;BME280;63122;52.424;13.458;2024-02-28T08:34:52;101495.59;;;3.11;100.00
41945;BME280;63122;52.424;13.458;2024-02-28T08:36:51;101499.53;;;3.18;100.00
41945;BME280;63122;52.424;13.458;2024-02-28T08:38:50;101502.31;;;3.15;100.00
41945;BME280;63122;52.424;13.458;2024-02-28T08:40:45;101507.59;;;3.13;100.00
41945;BME280;63122;52.424;13.458;2024-02-28T08:42:39;101511.13;;;3.12;100.00
41945;BME280;63122;52.424;13.458;2024-02-28T08:44:35;101513.16;;;3.07;100.00
41945;BME280;63122;52.424;13.458;2024-02-28T08:46:27;101512.81;;;3.13;100.00
41945;BME280;63122;52.424;13.458;2024-02-28T08:48:23;101515.69;;;3.09;100.00
41945;BME280;63122;52.424;13.458;2024-02-28T08:50:19;101512.00;;;3.13;100.00
41945;BME280;63122;52.424;13.458;2024-02-28T08:52:15;101510.78;;;3.19;100.00
41945;BME280;63122;52.424;13.458;2024-02-28T08:54:12;101511.56;;;3.21;100.00
41945;BME280;63122;52.424;13.458;2024-02-28T08:56:09;101515.19;;;3.18;100.00
41945;BME280;63122;52.424;13.458;2024-02-28T08:58:02;101515.53;;;3.12;100.00
41945;BME280;63122;52.424;13.458;2024-02-28T08:59:58;101511.81;;;3.16;100.00
41945;BME280;63122;52.424;13.458;2024-02-28T09:01:54;101510.22;;;3.13;100.00
41945;BME280;63122;52.424;13.458;2024-02-28T09:03:50;101516.00;;;3.19;100.00
41945;BME280;63122;52.424;13.458;2024-02-28T09:05:47;101506.84;;;3.27;100.00
41945;BME280;63122;52.424;13.458;2024-02-28T09:07:40;101511.25;;;3.27;100.00
41945;BME280;63122;52.424;13.458;2024-02-28T09:09:41;101503.59;;;3.24;100.00
41945;BME280;63122;52.424;13.458;2024-02-28T09:11:37;101498.88;;;3.30;100.00
41945;BME280;63122;52.424;13.458;2024-02-28T09:13:30;101501.97;;;3.37;100.00
41945;BME280;63122;52.424;13.458;2024-02-28T09:15:26;101496.69;;;3.39;100.00
41945;BME280;63122;52.424;13.458;2024-02-28T09:17:21;101490.44;;;3.41;100.00
41945;BME280;63122;52.424;13.458;2024-02-28T09:19:15;101492.13;;;3.42;100.00
41945;BME280;63122;52.424;13.458;2024-02-28T09:21:10;101494.41;;;3.49;100.00
41945;BME280;63122;52.424;13.458;2024-02-28T09:23:04;101504.75;;;3.50;100.00
41945;BME280;63122;52.424;13.458;2024-02-28T09:25:02;101506.19;;;3.40;100.00
41945;BME280;63122;52.424;13.458;2024-02-28T09:26:56;101506.38;;;3.37;100.00
41945;BME280;63122;52.424;13.458;2024-02-28T09:28:52;101493.97;;;3.24;100.00
41945;BME280;63122;52.424;13.458;2024-02-28T09:30:47;101502.38;;;3.13;100.00
41945;BME280;63122;52.424;13.458;2024-02-28T09:32:45;101505.91;;;3.12;100.00
41945;BME280;63122;52.424;13.458;2024-02-28T09:34:39;101501.22;;;3.03;100.00
41945;BME280;63122;52.424;13.458;2024-02-28T09:36:40;101504.91;;;2.99;100.00
41945;BME280;63122;52.424;13.458;2024-02-28T09:38:33;101500.44;;;3.01;100.00
41945;BME280;63122;52.424;13.458;2024-02-28T09:40:31;101510.28;;;2.96;100.00
41945;BME280;63122;52.424;13.458;2024-02-28T09:42:27;101513.38;;;3.02;100.00
41945;BME280;63122;52.424;13.458;2024-02-28T09:44:21;101511.88;;;2.98;100.00
41945;BME280;63122;52.424;13.458;2024-02-28T09:46:17;101517.06;;;2.98;100.00
41945;BME280;63122;52.424;13.458;2024-02-28T09:48:10;101520.38;;;3.02;100.00
41945;BME280;63122;52.424;13.458;2024-02-28T09:50:07;101509.19;;;3.00;100.00
41945;BME280;63122;52.424;13.458;2024-02-28T09:52:00;101518.53;;;3.04;100.00
41945;BME280;63122;52.424;13.458;2024-02-28T09:53:56;101524.72;;;3.01;100.00
41945;BME280;63122;52.424;13.458;2024-02-28T09:55:54;101522.13;;;3.01;100.00
41945;BME280;63122;52.424;13.458;2024-02-28T09:57:50;101527.28;;;3.03;100.00
41945;BME280;63122;52.424;13.458;2024-02-28T09:59:48;101532.81;;;2.97;100.00
41945;BME280;63122;52.424;13.458;2024-02-28T10:01:54;101529.53;;;2.93;100.00
41945;BME280;63122;52.424;13.458;2024-02-28T10:03:53;101536.34;;;2.96;100.00
41945;BME280;63122;52.424;13.458;2024-02-28T10:05:49;101538.69;;;3.00;100.00
41945;BME280;63122;52.424;13.458;2024-02-28T10:07:45;101534.94;;;3.06;100.00
41945;BME280;63122;52.424;13.458;2024-02-28T10:09:38;101535.69;;;3.08;100.00
41945;BME280;63122;52.424;13.458;2024-02-28T10:11:36;101530.63;;;3.05;100.00
41945;BME280;63122;52.424;13.458;2024-02-28T10:13:38;101536.69;;;3.06;100.00
41945;BME280;63122;52.424;13.458;2024-02-28T10:15:33;101537.31;;;3.11;100.00
41945;BME280;63122;52.424;13.458;2024-02-28T10:17:30;101534.38;;;3.17;100.00
41945;BME280;63122;52.424;13.458;2024-02-28T10:19:26;101536.75;;;3.22;100.00
41945;BME280;63122;52.424;13.458;2024-02-28T10:21:22;101543.38;;;3.27;100.00
41945;BME280;63122;52.424;13.458;2024-02-28T10:23:18;101539.00;;;3.28;100.00
41945;BME280;63122;52.424;13.458;2024-02-28T10:25:14;101549.69;;;3.23;100.00
41945;BME280;63122;52.424;13.458;2024-02-28T10:27:15;101552.22;;;3.25;100.00
41945;BME280;63122;52.424;13.458;2024-02-28T10:29:09;101550.53;;;3.24;100.00
41945;BME280;63122;52.424;13.458;2024-02-28T10:31:05;101555.41;;;3.30;100.00
41945;BME280;63122;52.424;13.458;2024-02-28T10:33:00;101556.06;;;3.34;100.00
41945;BME280;63122;52.424;13.458;2024-02-28T10:34:55;101549.44;;;3.28;100.00
41945;BME280;63122;52.424;13.458;2024-02-28T10:36:50;101560.09;;;3.23;100.00
41945;BME280;63122;52.424;13.458;2024-02-28T10:38:46;101556.25;;;3.30;100.00
41945;BME280;63122;52.424;13.458;2024-02-28T10:40:42;101556.84;;;3.36;100.00
41945;BME280;63122;52.424;13.458;2024-02-28T10:42:42;101559.53;;;3.34;100.00
41945;BME280;63122;52.424;13.458;2024-02-28T10:44:38;101564.91;;;3.31;100.00
41945;BME280;63122;52.424;13.458;2024-02-28T10:46:33;101562.06;;;3.36;100.00
41945;BME280;63122;52.424;13.458;2024-02-28T10:48:30;101564.25;;;3.43;100.00
41945;BME280;63122;52.424;13.458;2024-02-28T10:50:25;101569.22;;;3.48;100.00
41945;BME280;63122;52.424;13.458;2024-02-28T10:52:22;101566.19;;;3.40;100.00
41945;BME280;63122;52.424;13.458;2024-02-28T10:54:15;101562.66;;;3.25;100.00
41945;BME280;63122;52.424;13.458;2024-02-28T10:56:11;101564.34;;;3.26;100.00
41945;BME280;63122;52.424;13.458;2024-02-28T10:58:10;101564.41;;;3.24;100.00
41945;BME280;63122;52.424;13.458;2024-02-28T11:00:07;101559.41;;;3.20;100.00
41945;BME280;63122;52.424;13.458;2024-02-28T11:02:00;101564.41;;;3.24;100.00
41945;BME280;63122;52.424;13.458;2024-02-28T11:03:56;101568.53;;;3.28;100.00
41945;BME280;63122;52.424;13.458;2024-02-28T11:05:49;101566.50;;;3.34;100.00
41945;BME280;63122;52.424;13.458;2024-02-28T11:07:44;101574.94;;;3.39;100.00
41945;BME280;63122;52.424;13.458;2024-02-28T11:09:40;101570.50;;;3.41;100.00
41945;BME280;63122;52.424;13.458;2024-02-28T11:11:36;101570.50;;;3.41;100.00
41945;BME280;63122;52.424;13.458;2024-02-28T11:13:35;101569.56;;;3.42;100.00
41945;BME280;63122;52.424;13.458;2024-02-28T11:15:28;101567.94;;;3.39;100.00
41945;BME280;63122;52.424;13.458;2024-02-28T11:17:26;101566.97;;;3.42;100.00
41945;BME280;63122;52.424;13.458;2024-02-28T11:19:20;101562.22;;;3.49;100.00
41945;BME280;63122;52.424;13.458;2024-02-28T11:21:16;101572.44;;;3.53;100.00
41945;BME280;63122;52.424;13.458;2024-02-28T11:23:09;101575.63;;;3.58;100.00
41945;BME280;63122;52.424;13.458;2024-02-28T11:25:07;101563.84;;;3.51;100.00
41945;BME280;63122;52.424;13.458;2024-02-28T11:27:03;101563.59;;;3.56;100.00
41945;BME280;63122;52.424;13.458;2024-02-28T11:29:09;101565.09;;;3.60;100.00
41945;BME280;63122;52.424;13.458;2024-02-28T11:31:06;101564.09;;;3.63;100.00
41945;BME280;63122;52.424;13.458;2024-02-28T11:33:02;101563.09;;;3.65;100.00
41945;BME280;63122;52.424;13.458;2024-02-28T11:35:00;101566.56;;;3.66;100.00
41945;BME280;63122;52.424;13.458;2024-02-28T11:36:53;101569.06;;;3.67;100.00
41945;BME280;63122;52.424;13.458;2024-02-28T11:38:52;101564.69;;;3.52;100.00
41945;BME280;63122;52.424;13.458;2024-02-28T11:40:50;101574.09;;;3.54;100.00
41945;BME280;63122;52.424;13.458;2024-02-28T11:42:46;101573.00;;;3.58;100.00
41945;BME280;63122;52.424;13.458;2024-02-28T11:44:52;101569.66;;;3.56;100.00
41945;BME280;63122;52.424;13.458;2024-02-28T11:46:53;101571.75;;;3.50;100.00
41945;BME280;63122;52.424;13.458;2024-02-28T11:48:49;101582.28;;;3.48;100.00
41945;BME280;63122;52.424;13.458;2024-02-28T11:50:43;101572.84;;;3.45;100.00
41945;BME280;63122;52.424;13.458;2024-02-28T11:52:39;101584.03;;;3.48;100.00
41945;BME280;63122;52.424;13.458;2024-02-28T11:54:36;101577.56;;;3.39;100.00
41945;BME280;63122;52.424;13.458;2024-02-28T11:56:29;101582.03;;;3.37;100.00
41945;BME280;63122;52.424;13.458;2024-02-28T11:58:25;101578.38;;;3.39;100.00
41945;BME280;63122;52.424;13.458;2024-02-28T12:00:26;101577.06;;;3.48;100.00
41945;BME280;63122;52.424;13.458;2024-02-28T12:02:22;101581.19;;;3.52;100.00
41945;BME280;63122;52.424;13.458;2024-02-28T12:04:20;101582.84;;;3.53;100.00
41945;BME280;63122;52.424;13.458;2024-02-28T12:06:16;101582.84;;;3.53;100.00
41945;BME280;63122;52.424;13.458;2024-02-28T12:08:11;101586.06;;;3.58;100.00
41945;BME280;63122;52.424;13.458;2024-02-28T12:10:08;101584.47;;;3.56;100.00
41945;BME280;63122;52.424;13.458;2024-02-28T12:12:06;101582.34;;;3.63;100.00
41945;BME280;63122;52.424;13.458;2024-02-28T12:14:03;101583.28;;;3.62;100.00
41945;BME280;63122;52.424;13.458;2024-02-28T12:15:58;101579.66;;;3.64;100.00
41945;BME280;63122;52.424;13.458;2024-02-28T12:17:54;101580.25;;;3.69;100.00